createdAt,value
2022-09-16T00:01:15.930Z,6.40
2022-09-16T00:03:44.797Z,6.60
2022-09-16T00:06:20.322Z,7.17
2022-09-16T00:08:47.729Z,5.47
2022-09-16T00:11:15.133Z,5.83
2022-09-16T00:13:42.311Z,6.77
2022-09-16T00:16:11.523Z,6.83
2022-09-16T00:18:38.398Z,6.33
2022-09-16T00:21:09.951Z,6.67
2022-09-16T00:23:37.214Z,6.17
2022-09-16T00:26:05.242Z,6.43
2022-09-16T00:28:32.591Z,4.73
2022-09-16T00:31:00.167Z,6.57
2022-09-16T00:33:27.719Z,6.00
2022-09-16T00:36:05.338Z,7.63
2022-09-16T00:38:34.233Z,6.00
2022-09-16T00:41:01.130Z,6.83
2022-09-16T00:43:28.065Z,6.93
2022-09-16T00:45:59.780Z,5.03
2022-09-16T00:48:29.332Z,6.60
2022-09-16T00:50:58.627Z,5.73
2022-09-16T00:53:29.314Z,5.63
2022-09-16T00:56:00.766Z,7.83
2022-09-16T00:58:37.959Z,5.47
2022-09-16T01:01:05.868Z,6.27
2022-09-16T01:03:35.253Z,6.90
2022-09-16T01:06:03.025Z,5.43
2022-09-16T01:08:30.077Z,7.73
2022-09-16T01:10:58.369Z,5.87
2022-09-16T01:13:25.392Z,6.63
2022-09-16T01:15:59.382Z,7.03
2022-09-16T01:18:31.650Z,7.73
2022-09-16T01:21:26.052Z,6.90
2022-09-16T01:24:34.314Z,7.77
2022-09-16T01:27:38.851Z,7.97
2022-09-16T01:31:00.300Z,8.20
2022-09-16T01:33:38.114Z,7.23
2022-09-16T01:36:21.812Z,6.47
2022-09-16T01:39:01.809Z,8.27
2022-09-16T01:41:39.088Z,6.97
2022-09-16T01:44:16.391Z,6.03
2022-09-16T01:46:48.313Z,8.03
2022-09-16T01:49:23.623Z,7.37
2022-09-16T01:51:58.483Z,7.60
2022-09-16T01:54:31.961Z,6.67
2022-09-16T01:57:04.694Z,6.87
2022-09-16T01:59:36.516Z,6.80
2022-09-16T02:02:06.841Z,7.00
2022-09-16T02:04:39.999Z,7.80
2022-09-16T02:07:10.875Z,6.23
2022-09-16T02:09:42.314Z,7.20
2022-09-16T02:12:14.497Z,8.47
2022-09-16T02:14:43.859Z,7.73
2022-09-16T02:17:12.670Z,8.03
2022-09-16T02:19:44.391Z,7.07
2022-09-16T02:22:14.918Z,6.80
2022-09-16T02:24:44.759Z,6.33
2022-09-16T02:27:15.571Z,6.73
2022-09-16T02:29:46.735Z,7.83
2022-09-16T02:32:15.135Z,6.80
2022-09-16T02:34:47.235Z,6.17
2022-09-16T02:37:19.424Z,7.27
2022-09-16T02:39:50.413Z,8.47
2022-09-16T02:42:17.734Z,6.07
2022-09-16T02:44:46.243Z,7.80
2022-09-16T02:47:17.266Z,8.10
2022-09-16T02:49:55.479Z,5.70
2022-09-16T02:52:29.035Z,5.93
2022-09-16T02:55:03.199Z,8.27
2022-09-16T02:57:30.324Z,6.27
2022-09-16T02:59:57.292Z,6.63
2022-09-16T03:02:24.417Z,6.57
2022-09-16T03:04:52.602Z,5.37
2022-09-16T03:07:19.576Z,5.93
2022-09-16T03:09:47.976Z,4.80
2022-09-16T03:12:30.531Z,5.47
2022-09-16T03:15:15.777Z,8.33
2022-09-16T03:17:59.120Z,6.43
2022-09-16T03:20:35.763Z,6.50
2022-09-16T03:23:12.586Z,6.87
2022-09-16T03:25:45.685Z,5.27
2022-09-16T03:28:16.997Z,5.20
2022-09-16T03:30:50.422Z,5.80
2022-09-16T03:33:25.198Z,6.73
2022-09-16T03:35:59.098Z,6.33
2022-09-16T03:38:27.502Z,5.53
2022-09-16T03:40:54.541Z,5.77
2022-09-16T03:43:21.403Z,7.07
2022-09-16T03:45:48.277Z,6.03
2022-09-16T03:48:15.267Z,5.87
2022-09-16T03:50:42.230Z,7.60
2022-09-16T03:53:10.422Z,4.40
2022-09-16T03:55:37.471Z,4.80
2022-09-16T03:58:04.404Z,6.27
2022-09-16T04:00:31.643Z,4.97
2022-09-16T04:02:59.403Z,5.53
2022-09-16T04:05:26.547Z,5.90
2022-09-16T04:07:53.411Z,5.13
2022-09-16T04:10:21.707Z,4.17
2022-09-16T04:12:48.607Z,7.27
2022-09-16T04:15:16.241Z,6.13
2022-09-16T04:17:43.198Z,4.93
2022-09-16T04:20:10.451Z,5.47
2022-09-16T04:22:37.364Z,4.80
2022-09-16T04:25:04.798Z,6.17
2022-09-16T04:27:33.101Z,6.47
2022-09-16T04:29:59.996Z,5.30
2022-09-16T04:32:26.970Z,5.97
2022-09-16T04:34:55.253Z,5.07
2022-09-16T04:37:22.177Z,4.80
2022-09-16T04:39:49.127Z,4.27
2022-09-16T04:42:16.012Z,8.60
2022-09-16T04:44:44.825Z,4.33
2022-09-16T04:47:11.776Z,6.17
2022-09-16T04:49:38.616Z,4.30
2022-09-16T04:52:05.531Z,4.70
2022-09-16T04:54:32.376Z,5.80
2022-09-16T04:56:59.259Z,5.73
2022-09-16T04:59:26.121Z,5.37
2022-09-16T05:01:54.412Z,6.07
2022-09-16T05:04:21.507Z,5.13
2022-09-16T05:06:48.345Z,9.10
2022-09-16T05:09:58.954Z,8.13
2022-09-16T05:12:25.727Z,6.83
2022-09-16T05:14:52.525Z,6.70
2022-09-16T05:17:46.643Z,5.53
2022-09-16T05:20:08.169Z,5.60
2022-09-16T05:22:34.969Z,5.17
2022-09-16T05:25:01.883Z,7.33
2022-09-16T05:27:31.316Z,6.43
2022-09-16T05:29:58.194Z,6.67
2022-09-16T05:36:42.077Z,5.50
2022-09-16T05:39:25.728Z,5.17
2022-09-16T05:41:55.062Z,7.63
2022-09-16T05:44:22.025Z,5.60
2022-09-16T05:46:48.856Z,7.17
2022-09-16T05:49:20.644Z,7.13
2022-09-16T05:51:49.624Z,7.90
2022-09-16T05:54:18.524Z,4.80
2022-09-16T05:56:46.128Z,6.07
2022-09-16T05:59:14.235Z,4.43
2022-09-16T06:01:41.725Z,5.57
2022-09-16T06:04:11.739Z,5.90
2022-09-16T06:06:40.022Z,5.77
2022-09-16T06:09:10.743Z,5.97
2022-09-16T06:11:41.465Z,7.30
2022-09-16T06:14:09.003Z,5.40
2022-09-16T06:16:36.796Z,7.00
2022-09-16T06:19:06.016Z,7.63
2022-09-16T06:21:32.863Z,6.67
2022-09-16T06:23:59.863Z,4.77
2022-09-16T06:26:28.434Z,5.37
2022-09-16T06:28:55.886Z,7.23
2022-09-16T06:31:24.574Z,5.70
2022-09-16T06:33:51.815Z,6.13
2022-09-16T06:36:20.700Z,6.23
2022-09-16T06:38:48.454Z,5.77
2022-09-16T06:41:17.257Z,7.47
2022-09-16T06:43:46.139Z,7.07
2022-09-16T06:46:16.180Z,6.20
2022-09-16T06:48:44.395Z,6.23
2022-09-16T06:51:13.158Z,6.33
2022-09-16T06:57:52.616Z,6.57
2022-09-16T07:00:21.086Z,7.13
2022-09-16T07:02:48.105Z,6.70
2022-09-16T07:05:15.251Z,6.77
2022-09-16T07:07:42.188Z,6.63
2022-09-16T07:10:09.872Z,10.03
2022-09-16T07:12:36.697Z,6.33
2022-09-16T07:15:03.920Z,7.23
2022-09-16T07:17:32.110Z,7.67
2022-09-16T07:19:59.229Z,5.90
2022-09-16T07:22:26.084Z,4.57
2022-09-16T07:24:53.185Z,5.97
2022-09-16T07:27:20.035Z,5.20
2022-09-16T07:29:47.053Z,5.97
2022-09-16T07:32:14.055Z,6.13
2022-09-16T07:34:42.157Z,5.47
2022-09-16T07:37:08.973Z,4.43
2022-09-16T07:39:35.945Z,5.93
2022-09-16T07:42:06.077Z,5.07
2022-09-16T07:44:33.747Z,7.60
2022-09-16T07:47:00.567Z,6.30
2022-09-16T07:49:27.557Z,7.40
2022-09-16T07:51:55.731Z,4.63
2022-09-16T07:54:22.638Z,5.23
2022-09-16T07:56:49.512Z,6.10
2022-09-16T07:59:18.708Z,5.77
2022-09-16T08:01:47.051Z,7.30
2022-09-16T08:04:13.938Z,6.17
2022-09-16T08:06:41.162Z,5.70
2022-09-16T08:09:36.668Z,4.77
2022-09-16T08:11:56.150Z,6.57
2022-09-16T08:14:22.965Z,5.33
2022-09-16T08:16:52.634Z,5.77
2022-09-16T08:19:20.550Z,6.97
2022-09-16T08:21:47.433Z,5.93
2022-09-16T08:24:16.450Z,7.13
2022-09-16T08:26:43.377Z,7.50
2022-09-16T08:29:10.630Z,6.53
2022-09-16T08:31:38.308Z,9.63
2022-09-16T08:34:05.532Z,6.43
2022-09-16T08:36:35.125Z,4.93
2022-09-16T08:39:02.085Z,7.77
2022-09-16T08:42:02.039Z,6.73
2022-09-16T08:44:37.824Z,6.50
2022-09-16T08:47:22.956Z,6.23
2022-09-16T08:49:51.266Z,6.17
2022-09-16T08:52:27.073Z,7.17
2022-09-16T08:54:58.523Z,5.87
2022-09-16T08:57:30.541Z,6.63
2022-09-16T09:00:01.675Z,7.30
2022-09-16T09:02:48.544Z,6.03
2022-09-16T09:05:18.940Z,6.70
2022-09-16T09:08:05.904Z,10.30
2022-09-16T09:10:42.948Z,6.70
2022-09-16T09:13:28.754Z,7.10
2022-09-16T09:16:03.295Z,7.30
2022-09-16T09:18:40.800Z,5.43
2022-09-16T09:21:19.561Z,5.23
2022-09-16T09:24:24.573Z,5.30
2022-09-16T09:26:56.300Z,5.83
2022-09-16T09:29:50.398Z,5.53
2022-09-16T09:32:25.535Z,5.00
2022-09-16T09:35:20.476Z,5.83
2022-09-16T09:38:12.145Z,5.90
2022-09-16T09:40:43.882Z,3.83
2022-09-16T09:43:17.136Z,5.00
2022-09-16T09:45:52.003Z,4.43
2022-09-16T09:48:23.311Z,5.00
2022-09-16T09:50:51.812Z,6.97
2022-09-16T09:53:25.041Z,5.07
2022-09-16T09:56:10.916Z,5.63
2022-09-16T09:58:41.307Z,4.90
2022-09-16T10:01:11.226Z,4.17
2022-09-16T10:03:40.128Z,4.37
2022-09-16T10:06:07.354Z,4.13
2022-09-16T10:08:40.661Z,4.10
2022-09-16T10:11:16.985Z,4.00
2022-09-16T10:13:49.476Z,6.20
2022-09-16T10:16:20.814Z,5.33
2022-09-16T10:18:59.660Z,5.00
2022-09-16T10:21:38.701Z,4.70
2022-09-16T10:24:05.835Z,4.23
2022-09-16T10:26:40.601Z,3.17
2022-09-16T10:29:19.437Z,4.20
2022-09-16T10:31:48.228Z,3.87
2022-09-16T10:34:28.137Z,4.67
2022-09-16T10:37:05.465Z,5.37
2022-09-16T10:39:33.282Z,3.30
2022-09-16T10:42:00.488Z,5.23
2022-09-16T10:44:29.565Z,4.70
2022-09-16T10:47:01.097Z,5.00
2022-09-16T10:49:35.133Z,5.17
2022-09-16T10:52:14.248Z,7.43
2022-09-16T10:54:41.285Z,5.37
2022-09-16T10:57:24.911Z,4.13
2022-09-16T11:00:00.680Z,5.20
2022-09-16T11:02:53.005Z,5.13
2022-09-16T11:05:29.713Z,4.50
2022-09-16T11:08:06.611Z,4.80
2022-09-16T11:10:40.792Z,5.43
2022-09-16T11:13:20.863Z,4.53
2022-09-16T11:16:05.025Z,4.57
2022-09-16T11:18:50.656Z,6.10
2022-09-16T11:21:36.854Z,6.90
2022-09-16T11:24:39.469Z,5.37
2022-09-16T11:27:14.128Z,3.13
2022-09-16T11:29:51.976Z,3.57
2022-09-16T11:32:29.081Z,4.17
2022-09-16T11:35:21.759Z,4.30
2022-09-16T11:37:54.289Z,4.90
2022-09-16T11:40:31.514Z,4.60
2022-09-16T11:43:09.765Z,2.83
2022-09-16T11:45:46.945Z,4.50
2022-09-16T11:48:36.284Z,4.40
2022-09-16T11:51:11.619Z,3.87
2022-09-16T11:54:12.575Z,3.63
2022-09-16T11:56:46.118Z,4.77
2022-09-16T11:59:20.923Z,3.90
2022-09-16T12:01:52.554Z,3.13
2022-09-16T12:04:25.692Z,3.20
2022-09-16T12:07:01.109Z,4.87
2022-09-16T12:09:36.258Z,3.23
2022-09-16T12:12:11.875Z,4.17
2022-09-16T12:14:42.678Z,3.10
2022-09-16T12:17:16.141Z,4.67
2022-09-16T12:19:47.575Z,4.13
2022-09-16T12:22:20.665Z,3.70
2022-09-16T12:24:55.252Z,3.13
2022-09-16T12:27:34.807Z,2.93
2022-09-16T12:30:05.283Z,3.33
2022-09-16T12:32:38.874Z,2.27
2022-09-16T12:35:14.819Z,4.40
2022-09-16T12:37:48.020Z,3.57
2022-09-16T12:40:18.610Z,3.23
2022-09-16T12:43:21.403Z,3.00
2022-09-16T12:46:06.675Z,3.33
2022-09-16T12:48:55.512Z,2.23
2022-09-16T12:51:35.398Z,3.47
2022-09-16T12:54:40.911Z,2.10
2022-09-16T12:57:28.686Z,2.50
2022-09-16T13:00:19.637Z,3.53
2022-09-16T13:02:50.604Z,2.47
2022-09-16T13:05:22.752Z,2.87
2022-09-16T13:07:53.236Z,2.60
2022-09-16T13:10:53.939Z,4.27
2022-09-16T13:13:28.060Z,2.53
2022-09-16T13:15:57.524Z,3.97
2022-09-16T13:18:37.389Z,3.40
2022-09-16T13:21:11.790Z,4.80
2022-09-16T13:23:43.506Z,2.47
2022-09-16T13:26:12.030Z,3.80
2022-09-16T13:28:40.697Z,2.73
2022-09-16T13:31:19.397Z,3.43
2022-09-16T13:33:47.671Z,4.47
2022-09-16T13:36:31.420Z,4.23
2022-09-16T13:39:00.020Z,4.03
2022-09-16T13:41:35.044Z,4.50
2022-09-16T13:44:03.852Z,5.30
2022-09-16T13:46:34.187Z,4.30
2022-09-16T13:49:23.712Z,5.90
2022-09-16T13:51:52.217Z,4.13
2022-09-16T13:54:37.191Z,2.80
2022-09-16T13:57:55.023Z,2.97
2022-09-16T14:00:23.925Z,3.53
2022-09-16T14:03:06.848Z,2.87
2022-09-16T14:05:53.593Z,4.93
2022-09-16T14:08:29.104Z,2.90
2022-09-16T14:11:02.123Z,2.17
2022-09-16T14:13:39.560Z,3.33
2022-09-16T14:16:14.863Z,2.97
2022-09-16T14:18:48.665Z,5.03
2022-09-16T14:21:21.094Z,1.70
2022-09-16T14:23:48.411Z,4.43
2022-09-16T14:26:17.924Z,2.43
2022-09-16T14:28:46.473Z,3.80
2022-09-16T14:31:17.422Z,2.63
2022-09-16T14:33:47.371Z,4.57
2022-09-16T14:36:18.848Z,2.47
2022-09-16T14:38:50.408Z,2.87
2022-09-16T14:41:25.934Z,3.27
2022-09-16T14:44:08.021Z,3.00
2022-09-16T14:46:41.224Z,3.17
2022-09-16T14:49:10.700Z,2.80
2022-09-16T14:51:43.546Z,3.27
2022-09-16T14:54:17.120Z,2.87
2022-09-16T14:56:55.282Z,4.23
2022-09-16T14:59:25.668Z,3.47
2022-09-16T15:01:54.778Z,3.63
2022-09-16T15:04:27.478Z,3.73
2022-09-16T15:07:03.835Z,3.10
2022-09-16T15:09:39.478Z,2.77
2022-09-16T15:12:07.111Z,4.33
2022-09-16T15:14:38.154Z,3.33
2022-09-16T15:17:05.167Z,3.07
2022-09-16T15:19:35.864Z,2.10
2022-09-16T15:22:03.993Z,3.13
2022-09-16T15:24:35.821Z,3.30
2022-09-16T15:27:03.292Z,2.73
2022-09-16T15:29:32.728Z,3.33
2022-09-16T15:32:18.744Z,3.40
2022-09-16T15:34:46.251Z,3.33
2022-09-16T15:37:31.032Z,5.17
2022-09-16T15:40:08.847Z,2.80
2022-09-16T15:42:37.165Z,5.87
2022-09-16T15:45:14.706Z,3.37
2022-09-16T15:47:56.098Z,3.10
2022-09-16T15:50:25.787Z,3.00
2022-09-16T15:52:58.178Z,3.90
2022-09-16T15:55:31.986Z,3.50
2022-09-16T15:58:05.426Z,4.17
2022-09-16T16:00:58.650Z,3.37
2022-09-16T16:03:27.633Z,3.13
2022-09-16T16:05:54.923Z,3.20
2022-09-16T16:08:47.011Z,2.80
2022-09-16T16:11:15.774Z,3.57
2022-09-16T16:13:43.749Z,2.13
2022-09-16T16:16:12.200Z,4.57
2022-09-16T16:18:41.510Z,4.20
2022-09-16T16:21:10.438Z,4.07
2022-09-16T16:23:37.909Z,2.93
2022-09-16T16:26:05.765Z,2.27
2022-09-16T16:28:32.899Z,2.90
2022-09-16T16:31:14.699Z,2.03
2022-09-16T16:33:44.918Z,4.63
2022-09-16T16:36:13.701Z,3.20
2022-09-16T16:38:40.750Z,5.23
2022-09-16T16:41:07.853Z,4.83
2022-09-16T16:43:34.761Z,1.33
2022-09-16T16:46:01.781Z,2.63
2022-09-16T16:48:29.112Z,3.27
2022-09-16T16:50:58.738Z,2.20
2022-09-16T16:53:26.371Z,2.23
2022-09-16T16:55:53.588Z,3.03
2022-09-16T16:58:20.654Z,5.13
2022-09-16T17:00:48.587Z,2.93
2022-09-16T17:03:16.241Z,2.33
2022-09-16T17:05:43.240Z,2.87
2022-09-16T17:08:11.482Z,2.77
2022-09-16T17:10:38.377Z,3.00
2022-09-16T17:13:05.320Z,4.43
2022-09-16T17:15:32.223Z,3.03
2022-09-16T17:17:59.165Z,2.57
2022-09-16T17:20:26.293Z,5.50
2022-09-16T17:22:53.204Z,4.57
2022-09-16T17:25:21.588Z,4.03
2022-09-16T17:27:48.503Z,2.67
2022-09-16T17:30:15.542Z,2.20
2022-09-16T17:32:42.523Z,3.07
2022-09-16T17:35:09.765Z,2.50
2022-09-16T17:37:37.900Z,2.63
2022-09-16T17:40:06.613Z,2.73
2022-09-16T17:42:34.916Z,2.33
2022-09-16T17:45:06.183Z,2.40
2022-09-16T17:47:34.058Z,6.63
2022-09-16T17:50:05.140Z,4.43
2022-09-16T17:52:32.403Z,5.53
2022-09-16T17:54:59.266Z,2.17
2022-09-16T17:57:28.949Z,3.87
2022-09-16T18:00:00.656Z,5.27
2022-09-16T18:02:27.474Z,3.90
2022-09-16T18:04:54.472Z,2.27
2022-09-16T18:07:21.400Z,1.90
2022-09-16T18:09:48.587Z,2.13
2022-09-16T18:12:15.460Z,1.67
2022-09-16T18:14:42.393Z,1.97
2022-09-16T18:17:10.694Z,2.23
2022-09-16T18:19:37.627Z,0.97
2022-09-16T18:22:04.609Z,2.37
2022-09-16T18:24:31.641Z,3.00
2022-09-16T18:26:58.584Z,1.97
2022-09-16T18:29:25.460Z,2.83
2022-09-16T18:31:54.102Z,3.50
2022-09-16T18:34:22.459Z,4.03
2022-09-16T18:36:49.340Z,3.53
2022-09-16T18:39:17.278Z,3.53
2022-09-16T18:41:45.473Z,2.27
2022-09-16T18:44:14.572Z,2.67
2022-09-16T18:46:41.931Z,2.77
2022-09-16T18:49:14.778Z,2.40
2022-09-16T18:51:49.916Z,2.43
2022-09-16T18:54:20.245Z,2.80
2022-09-16T18:56:47.147Z,3.37
2022-09-16T18:59:22.100Z,3.40
2022-09-16T19:01:51.193Z,3.53
2022-09-16T19:04:20.645Z,3.03
2022-09-16T19:06:50.950Z,2.67
2022-09-16T19:09:20.187Z,2.27
2022-09-16T19:11:48.074Z,2.80
2022-09-16T19:14:15.413Z,2.40
2022-09-16T19:16:44.645Z,3.17
2022-09-16T19:19:13.550Z,4.83
2022-09-16T19:21:40.878Z,2.70
2022-09-16T19:24:14.083Z,3.77
2022-09-16T19:26:42.806Z,2.63
2022-09-16T19:29:10.232Z,2.50
2022-09-16T19:31:40.017Z,3.10
2022-09-16T19:34:07.011Z,2.53
2022-09-16T19:36:35.252Z,2.23
2022-09-16T19:39:03.186Z,2.53
2022-09-16T19:41:32.990Z,3.83
2022-09-16T19:44:01.902Z,2.80
2022-09-16T19:46:32.877Z,1.57
2022-09-16T19:49:00.234Z,1.23
2022-09-16T19:51:27.514Z,2.00
2022-09-16T19:53:54.814Z,1.63
2022-09-16T19:56:23.491Z,2.50
2022-09-16T19:58:53.211Z,1.43
2022-09-16T20:01:23.020Z,2.07
2022-09-16T20:03:50.661Z,1.70
2022-09-16T20:06:19.826Z,1.37
2022-09-16T20:08:48.060Z,2.10
2022-09-16T20:11:17.250Z,2.77
2022-09-16T20:13:48.730Z,2.63
2022-09-16T20:16:18.320Z,2.30
2022-09-16T20:18:45.605Z,3.10
2022-09-16T20:21:13.900Z,1.73
2022-09-16T20:23:41.240Z,2.33
2022-09-16T20:26:09.541Z,2.33
2022-09-16T20:28:41.720Z,1.80
2022-09-16T20:31:10.498Z,2.27
2022-09-16T20:33:39.468Z,1.60
2022-09-16T20:36:08.121Z,2.00
2022-09-16T20:38:36.768Z,1.87
2022-09-16T20:41:05.239Z,2.07
2022-09-16T20:43:32.256Z,1.80
2022-09-16T20:46:04.782Z,1.37
2022-09-16T20:48:31.972Z,1.73
2022-09-16T20:51:04.452Z,1.10
2022-09-16T20:53:31.346Z,1.63
2022-09-16T20:56:01.080Z,2.17
2022-09-16T20:58:28.085Z,2.43
2022-09-16T21:00:55.042Z,1.20
2022-09-16T21:03:21.943Z,1.30
2022-09-16T21:05:48.902Z,3.53
2022-09-16T21:08:17.076Z,2.20
2022-09-16T21:10:43.929Z,1.90
2022-09-16T21:13:10.753Z,1.30
2022-09-16T21:15:38.602Z,1.63
2022-09-16T21:18:05.637Z,1.40
2022-09-16T21:20:32.476Z,1.77
2022-09-16T21:22:59.701Z,3.00
2022-09-16T21:25:28.006Z,3.43
2022-09-16T21:27:54.959Z,2.37
2022-09-16T21:30:21.827Z,2.00
2022-09-16T21:32:48.661Z,1.53
2022-09-16T21:35:15.684Z,1.03
2022-09-16T21:37:42.536Z,2.03
2022-09-16T21:40:12.325Z,3.37
2022-09-16T21:42:40.576Z,2.73
2022-09-16T21:45:08.611Z,1.50
2022-09-16T21:47:35.492Z,1.23
2022-09-16T21:50:02.469Z,1.00
2022-09-16T21:52:29.265Z,4.03
2022-09-16T21:54:56.131Z,5.27
2022-09-16T21:57:23.019Z,6.50
2022-09-16T21:59:51.257Z,3.07
2022-09-16T22:02:18.169Z,1.73
2022-09-16T22:04:45.088Z,2.70
2022-09-16T22:07:12.020Z,1.80
2022-09-16T22:09:38.844Z,2.00
2022-09-16T22:12:06.832Z,2.00
2022-09-16T22:14:33.710Z,2.57
2022-09-16T22:17:02.908Z,1.97
2022-09-16T22:19:29.802Z,3.07
2022-09-16T22:21:56.712Z,1.20
2022-09-16T22:24:23.590Z,1.27
2022-09-16T22:26:51.768Z,2.00
2022-09-16T22:29:19.223Z,1.37
2022-09-16T22:31:46.195Z,2.40
2022-09-16T22:34:14.556Z,2.00
2022-09-16T22:36:41.518Z,1.30
2022-09-16T22:39:12.343Z,1.23
2022-09-16T22:41:39.179Z,1.10
2022-09-16T22:44:06.318Z,1.80
2022-09-16T22:46:38.520Z,1.73
2022-09-16T22:49:05.428Z,1.60
2022-09-16T22:51:33.843Z,0.87
2022-09-16T22:54:00.754Z,0.77
2022-09-16T22:56:31.903Z,1.60
2022-09-16T22:59:00.705Z,1.17
2022-09-16T23:01:29.883Z,1.57
2022-09-16T23:03:58.768Z,1.10
2022-09-16T23:06:27.921Z,2.83
2022-09-16T23:08:56.860Z,3.27
2022-09-16T23:11:25.947Z,1.50
2022-09-16T23:13:54.089Z,2.17
2022-09-16T23:16:23.136Z,1.50
2022-09-16T23:18:50.648Z,0.80
2022-09-16T23:21:19.247Z,1.40
2022-09-16T23:23:47.529Z,1.57
2022-09-16T23:26:18.047Z,1.27
2022-09-16T23:28:45.749Z,1.13
2022-09-16T23:31:15.555Z,1.07
2022-09-16T23:33:43.291Z,1.57
2022-09-16T23:36:11.968Z,4.27
2022-09-16T23:38:40.033Z,1.27
2022-09-16T23:41:10.703Z,4.00
2022-09-16T23:43:39.820Z,0.80
2022-09-16T23:46:07.265Z,1.50
2022-09-16T23:48:35.089Z,0.60
2022-09-16T23:51:02.578Z,2.70
2022-09-16T23:53:29.774Z,0.70
2022-09-16T23:55:56.655Z,1.80
2022-09-16T23:58:23.673Z,1.13
